sensor_id;sensor_type;location;lat;lon;timestamp;P1;durP1;ratioP1;P2;durP2;ratioP2
37451;SDS011;23314;51.114;6.900;2023-06-26T04:02:33;10.27;;;6.72;;
37451;SDS011;23314;51.114;6.900;2023-06-26T04:04:58;7.95;;;6.88;;
37451;SDS011;23314;51.114;6.900;2023-06-26T04:07:25;7.57;;;6.75;;
37451;SDS011;23314;51.114;6.900;2023-06-26T04:09:50;12.02;;;6.45;;
37451;SDS011;23314;51.114;6.900;2023-06-26T04:12:16;7.68;;;6.88;;
37451;SDS011;23314;51.114;6.900;2023-06-26T04:14:41;9.07;;;7.07;;
37451;SDS011;23314;51.114;6.900;2023-06-26T04:17:06;7.13;;;6.40;;
37451;SDS011;23314;51.114;6.900;2023-06-26T04:19:32;8.15;;;6.72;;
37451;SDS011;23314;51.114;6.900;2023-06-26T04:21:57;7.65;;;6.40;;
37451;SDS011;23314;51.114;6.900;2023-06-26T04:24:22;7.22;;;5.65;;
37451;SDS011;23314;51.114;6.900;2023-06-26T04:26:48;9.43;;;6.47;;
37451;SDS011;23314;51.114;6.900;2023-06-26T04:29:13;10.95;;;6.50;;
37451;SDS011;23314;51.114;6.900;2023-06-26T04:31:38;6.30;;;5.70;;
37451;SDS011;23314;51.114;6.900;2023-06-26T04:34:04;7.25;;;6.60;;
37451;SDS011;23314;51.114;6.900;2023-06-26T04:36:29;6.88;;;5.97;;
37451;SDS011;23314;51.114;6.900;2023-06-26T04:38:56;6.47;;;5.88;;
37451;SDS011;23314;51.114;6.900;2023-06-26T04:41:21;6.78;;;6.00;;
37451;SDS011;23314;51.114;6.900;2023-06-26T04:43:47;6.00;;;5.50;;
37451;SDS011;23314;51.114;6.900;2023-06-26T04:46:12;7.35;;;5.70;;
37451;SDS011;23314;51.114;6.900;2023-06-26T04:48:37;6.28;;;5.72;;
37451;SDS011;23314;51.114;6.900;2023-06-26T04:51:02;6.53;;;5.85;;
37451;SDS011;23314;51.114;6.900;2023-06-26T04:53:28;6.10;;;5.50;;
37451;SDS011;23314;51.114;6.900;2023-06-26T04:55:53;6.50;;;5.82;;
37451;SDS011;23314;51.114;6.900;2023-06-26T04:58:19;8.13;;;6.30;;
37451;SDS011;23314;51.114;6.900;2023-06-26T05:00:44;6.97;;;6.05;;
37451;SDS011;23314;51.114;6.900;2023-06-26T05:03:13;8.05;;;5.93;;
37451;SDS011;23314;51.114;6.900;2023-06-26T05:05:41;5.82;;;5.22;;
37451;SDS011;23314;51.114;6.900;2023-06-26T05:08:17;6.95;;;6.35;;
37451;SDS011;23314;51.114;6.900;2023-06-26T05:10:46;7.10;;;5.97;;
37451;SDS011;23314;51.114;6.900;2023-06-26T05:13:12;10.48;;;6.53;;
37451;SDS011;23314;51.114;6.900;2023-06-26T05:15:40;10.05;;;6.05;;
37451;SDS011;23314;51.114;6.900;2023-06-26T05:18:07;7.72;;;6.93;;
37451;SDS011;23314;51.114;6.900;2023-06-26T05:20:33;6.50;;;5.70;;
37451;SDS011;23314;51.114;6.900;2023-06-26T05:22:59;7.53;;;6.03;;
37451;SDS011;23314;51.114;6.900;2023-06-26T05:25:26;6.50;;;5.90;;
37451;SDS011;23314;51.114;6.900;2023-06-26T05:27:54;12.13;;;6.28;;
37451;SDS011;23314;51.114;6.900;2023-06-26T05:30:19;6.53;;;5.88;;
37451;SDS011;23314;51.114;6.900;2023-06-26T05:32:46;9.32;;;6.30;;
37451;SDS011;23314;51.114;6.900;2023-06-26T05:35:12;6.80;;;5.40;;
37451;SDS011;23314;51.114;6.900;2023-06-26T05:37:38;7.07;;;5.82;;
37451;SDS011;23314;51.114;6.900;2023-06-26T05:40:03;7.32;;;6.00;;
37451;SDS011;23314;51.114;6.900;2023-06-26T05:42:30;7.43;;;5.35;;
37451;SDS011;23314;51.114;6.900;2023-06-26T05:44:56;7.07;;;6.32;;
37451;SDS011;23314;51.114;6.900;2023-06-26T05:47:21;7.07;;;5.38;;
37451;SDS011;23314;51.114;6.900;2023-06-26T05:49:47;7.90;;;5.15;;
37451;SDS011;23314;51.114;6.900;2023-06-26T05:52:12;5.55;;;5.05;;
37451;SDS011;23314;51.114;6.900;2023-06-26T05:54:38;8.73;;;5.65;;
37451;SDS011;23314;51.114;6.900;2023-06-26T05:57:04;7.15;;;5.28;;
37451;SDS011;23314;51.114;6.900;2023-06-26T05:59:31;8.77;;;5.10;;
37451;SDS011;23314;51.114;6.900;2023-06-26T06:01:57;5.68;;;5.18;;
37451;SDS011;23314;51.114;6.900;2023-06-26T06:04:22;7.65;;;5.18;;
37451;SDS011;23314;51.114;6.900;2023-06-26T06:06:47;6.63;;;5.25;;
37451;SDS011;23314;51.114;6.900;2023-06-26T06:09:13;5.90;;;4.97;;
37451;SDS011;23314;51.114;6.900;2023-06-26T06:11:38;9.00;;;5.30;;
37451;SDS011;23314;51.114;6.900;2023-06-26T06:14:03;7.20;;;5.03;;
37451;SDS011;23314;51.114;6.900;2023-06-26T06:16:29;6.45;;;5.28;;
37451;SDS011;23314;51.114;6.900;2023-06-26T06:18:54;10.43;;;4.90;;
37451;SDS011;23314;51.114;6.900;2023-06-26T06:21:20;6.35;;;5.45;;
37451;SDS011;23314;51.114;6.900;2023-06-26T06:23:45;5.68;;;4.90;;
37451;SDS011;23314;51.114;6.900;2023-06-26T06:26:11;6.57;;;5.13;;
37451;SDS011;23314;51.114;6.900;2023-06-26T06:28:38;10.10;;;4.88;;
37451;SDS011;23314;51.114;6.900;2023-06-26T06:31:04;7.88;;;4.82;;
37451;SDS011;23314;51.114;6.900;2023-06-26T06:33:29;6.15;;;4.60;;
37451;SDS011;23314;51.114;6.900;2023-06-26T06:35:54;6.90;;;5.20;;
37451;SDS011;23314;51.114;6.900;2023-06-26T06:38:20;8.63;;;4.75;;
37451;SDS011;23314;51.114;6.900;2023-06-26T06:40:45;6.60;;;5.07;;
37451;SDS011;23314;51.114;6.900;2023-06-26T06:43:10;9.00;;;5.47;;
37451;SDS011;23314;51.114;6.900;2023-06-26T06:45:35;9.45;;;5.70;;
37451;SDS011;23314;51.114;6.900;2023-06-26T06:48:03;10.93;;;5.47;;
37451;SDS011;23314;51.114;6.900;2023-06-26T06:50:29;11.57;;;5.93;;
37451;SDS011;23314;51.114;6.900;2023-06-26T06:52:54;5.78;;;4.53;;
37451;SDS011;23314;51.114;6.900;2023-06-26T06:55:19;8.02;;;5.45;;
37451;SDS011;23314;51.114;6.900;2023-06-26T06:57:44;8.88;;;5.38;;
37451;SDS011;23314;51.114;6.900;2023-06-26T07:00:11;11.60;;;6.13;;
37451;SDS011;23314;51.114;6.900;2023-06-26T07:02:38;7.00;;;5.28;;
37451;SDS011;23314;51.114;6.900;2023-06-26T07:05:05;6.85;;;5.18;;
37451;SDS011;23314;51.114;6.900;2023-06-26T07:07:31;12.10;;;6.03;;
37451;SDS011;23314;51.114;6.900;2023-06-26T07:09:58;9.57;;;5.88;;
37451;SDS011;23314;51.114;6.900;2023-06-26T07:12:24;7.78;;;5.38;;
37451;SDS011;23314;51.114;6.900;2023-06-26T07:14:50;9.50;;;5.57;;
37451;SDS011;23314;51.114;6.900;2023-06-26T07:17:15;8.70;;;5.97;;
37451;SDS011;23314;51.114;6.900;2023-06-26T07:19:40;7.55;;;5.63;;
37451;SDS011;23314;51.114;6.900;2023-06-26T07:22:06;9.13;;;5.20;;
37451;SDS011;23314;51.114;6.900;2023-06-26T07:24:31;10.43;;;5.40;;
37451;SDS011;23314;51.114;6.900;2023-06-26T07:26:57;7.32;;;5.57;;
37451;SDS011;23314;51.114;6.900;2023-06-26T07:29:22;10.98;;;5.40;;
37451;SDS011;23314;51.114;6.900;2023-06-26T07:31:48;8.57;;;5.05;;
37451;SDS011;23314;51.114;6.900;2023-06-26T07:34:13;8.10;;;4.90;;
37451;SDS011;23314;51.114;6.900;2023-06-26T07:36:39;11.57;;;5.22;;
37451;SDS011;23314;51.114;6.900;2023-06-26T07:39:04;14.00;;;5.20;;
37451;SDS011;23314;51.114;6.900;2023-06-26T07:41:29;10.65;;;5.10;;
37451;SDS011;23314;51.114;6.900;2023-06-26T07:43:56;10.23;;;5.47;;
37451;SDS011;23314;51.114;6.900;2023-06-26T07:46:23;11.30;;;5.47;;
37451;SDS011;23314;51.114;6.900;2023-06-26T07:48:48;10.55;;;5.00;;
37451;SDS011;23314;51.114;6.900;2023-06-26T07:51:13;7.88;;;5.22;;
37451;SDS011;23314;51.114;6.900;2023-06-26T07:53:39;11.50;;;5.35;;
37451;SDS011;23314;51.114;6.900;2023-06-26T07:56:04;11.93;;;5.60;;
37451;SDS011;23314;51.114;6.900;2023-06-26T07:58:30;9.07;;;4.85;;
37451;SDS011;23314;51.114;6.900;2023-06-26T08:00:55;7.55;;;5.35;;
37451;SDS011;23314;51.114;6.900;2023-06-26T08:03:20;11.32;;;4.88;;
37451;SDS011;23314;51.114;6.900;2023-06-26T08:05:46;9.07;;;5.18;;
37451;SDS011;23314;51.114;6.900;2023-06-26T08:08:11;10.23;;;4.72;;
37451;SDS011;23314;51.114;6.900;2023-06-26T08:10:37;8.55;;;4.68;;
37451;SDS011;23314;51.114;6.900;2023-06-26T08:13:02;10.52;;;5.47;;
37451;SDS011;23314;51.114;6.900;2023-06-26T08:15:27;9.77;;;5.10;;
37451;SDS011;23314;51.114;6.900;2023-06-26T08:17:53;9.57;;;4.70;;
37451;SDS011;23314;51.114;6.900;2023-06-26T08:20:18;10.48;;;5.00;;
37451;SDS011;23314;51.114;6.900;2023-06-26T08:22:44;11.13;;;5.13;;
37451;SDS011;23314;51.114;6.900;2023-06-26T08:25:10;8.50;;;4.70;;
37451;SDS011;23314;51.114;6.900;2023-06-26T08:27:35;8.18;;;4.72;;
37451;SDS011;23314;51.114;6.900;2023-06-26T08:30:01;9.95;;;4.88;;
37451;SDS011;23314;51.114;6.900;2023-06-26T08:32:26;11.40;;;5.80;;
37451;SDS011;23314;51.114;6.900;2023-06-26T08:34:51;7.75;;;5.30;;
37451;SDS011;23314;51.114;6.900;2023-06-26T08:37:17;9.75;;;5.15;;
37451;SDS011;23314;51.114;6.900;2023-06-26T08:39:42;10.32;;;5.22;;
37451;SDS011;23314;51.114;6.900;2023-06-26T08:42:08;8.80;;;5.32;;
37451;SDS011;23314;51.114;6.900;2023-06-26T08:44:33;8.07;;;5.55;;
37451;SDS011;23314;51.114;6.900;2023-06-26T08:46:59;7.65;;;4.95;;
37451;SDS011;23314;51.114;6.900;2023-06-26T08:49:28;9.50;;;5.10;;
37451;SDS011;23314;51.114;6.900;2023-06-26T08:52:02;13.88;;;5.50;;
37451;SDS011;23314;51.114;6.900;2023-06-26T08:54:34;11.13;;;5.00;;
37451;SDS011;23314;51.114;6.900;2023-06-26T08:57:05;9.15;;;4.32;;
37451;SDS011;23314;51.114;6.900;2023-06-26T08:59:32;13.38;;;5.43;;
37451;SDS011;23314;51.114;6.900;2023-06-26T09:01:57;13.30;;;5.85;;
37451;SDS011;23314;51.114;6.900;2023-06-26T09:04:23;10.40;;;5.20;;
37451;SDS011;23314;51.114;6.900;2023-06-26T09:06:48;11.32;;;5.05;;
37451;SDS011;23314;51.114;6.900;2023-06-26T09:09:13;7.65;;;4.78;;
37451;SDS011;23314;51.114;6.900;2023-06-26T09:11:39;9.15;;;5.05;;
37451;SDS011;23314;51.114;6.900;2023-06-26T09:14:04;12.52;;;5.20;;
37451;SDS011;23314;51.114;6.900;2023-06-26T09:16:32;6.85;;;4.70;;
37451;SDS011;23314;51.114;6.900;2023-06-26T09:19:04;9.05;;;5.07;;
37451;SDS011;23314;51.114;6.900;2023-06-26T09:21:34;10.00;;;4.72;;
37451;SDS011;23314;51.114;6.900;2023-06-26T09:23:59;8.18;;;4.72;;
37451;SDS011;23314;51.114;6.900;2023-06-26T09:26:25;9.07;;;5.07;;
37451;SDS011;23314;51.114;6.900;2023-06-26T09:28:50;10.80;;;5.25;;
37451;SDS011;23314;51.114;6.900;2023-06-26T09:31:16;10.18;;;5.05;;
37451;SDS011;23314;51.114;6.900;2023-06-26T09:33:42;8.75;;;5.00;;
37451;SDS011;23314;51.114;6.900;2023-06-26T09:36:08;8.73;;;4.32;;
37451;SDS011;23314;51.114;6.900;2023-06-26T09:38:43;13.75;;;5.07;;
37451;SDS011;23314;51.114;6.900;2023-06-26T09:41:08;11.82;;;4.97;;
37451;SDS011;23314;51.114;6.900;2023-06-26T09:43:34;8.93;;;4.50;;
37451;SDS011;23314;51.114;6.900;2023-06-26T09:46:00;11.18;;;4.55;;
37451;SDS011;23314;51.114;6.900;2023-06-26T09:48:26;10.57;;;4.78;;
37451;SDS011;23314;51.114;6.900;2023-06-26T09:50:53;7.72;;;4.20;;
37451;SDS011;23314;51.114;6.900;2023-06-26T09:53:18;11.77;;;4.50;;
37451;SDS011;23314;51.114;6.900;2023-06-26T09:55:45;7.82;;;4.43;;
37451;SDS011;23314;51.114;6.900;2023-06-26T09:58:12;8.27;;;3.88;;
37451;SDS011;23314;51.114;6.900;2023-06-26T10:00:41;8.45;;;4.03;;
37451;SDS011;23314;51.114;6.900;2023-06-26T10:03:10;9.50;;;4.95;;
37451;SDS011;23314;51.114;6.900;2023-06-26T10:05:38;8.45;;;4.50;;
37451;SDS011;23314;51.114;6.900;2023-06-26T10:08:04;8.57;;;4.25;;
37451;SDS011;23314;51.114;6.900;2023-06-26T10:10:30;7.20;;;4.47;;
37451;SDS011;23314;51.114;6.900;2023-06-26T10:12:59;7.60;;;4.30;;
37451;SDS011;23314;51.114;6.900;2023-06-26T10:15:29;14.32;;;4.72;;
37451;SDS011;23314;51.114;6.900;2023-06-26T10:17:55;7.68;;;4.10;;
37451;SDS011;23314;51.114;6.900;2023-06-26T10:20:22;9.68;;;4.28;;
37451;SDS011;23314;51.114;6.900;2023-06-26T10:22:48;8.80;;;4.05;;
37451;SDS011;23314;51.114;6.900;2023-06-26T10:25:16;9.77;;;3.42;;
37451;SDS011;23314;51.114;6.900;2023-06-26T10:27:45;8.60;;;3.60;;
37451;SDS011;23314;51.114;6.900;2023-06-26T10:30:15;8.82;;;3.55;;
37451;SDS011;23314;51.114;6.900;2023-06-26T10:32:44;7.88;;;3.70;;
37451;SDS011;23314;51.114;6.900;2023-06-26T10:35:11;9.27;;;3.47;;
37451;SDS011;23314;51.114;6.900;2023-06-26T10:37:40;6.40;;;3.60;;
37451;SDS011;23314;51.114;6.900;2023-06-26T10:40:09;6.55;;;3.30;;
37451;SDS011;23314;51.114;6.900;2023-06-26T10:42:36;6.55;;;3.22;;
37451;SDS011;23314;51.114;6.900;2023-06-26T10:45:08;5.95;;;3.25;;
37451;SDS011;23314;51.114;6.900;2023-06-26T10:47:39;10.07;;;3.50;;
37451;SDS011;23314;51.114;6.900;2023-06-26T10:50:26;7.72;;;3.53;;
37451;SDS011;23314;51.114;6.900;2023-06-26T10:55:47;9.20;;;3.35;;
37451;SDS011;23314;51.114;6.900;2023-06-26T10:58:28;5.85;;;3.05;;
37451;SDS011;23314;51.114;6.900;2023-06-26T11:06:27;12.98;;;3.10;;
37451;SDS011;23314;51.114;6.900;2023-06-26T11:08:53;5.15;;;3.03;;
37451;SDS011;23314;51.114;6.900;2023-06-26T11:11:54;6.60;;;2.85;;
37451;SDS011;23314;51.114;6.900;2023-06-26T11:14:30;3.55;;;2.67;;
37451;SDS011;23314;51.114;6.900;2023-06-26T11:16:56;4.72;;;2.15;;
37451;SDS011;23314;51.114;6.900;2023-06-26T11:19:22;6.28;;;2.13;;
37451;SDS011;23314;51.114;6.900;2023-06-26T11:21:50;5.28;;;2.72;;
37451;SDS011;23314;51.114;6.900;2023-06-26T11:24:16;6.97;;;2.70;;
37451;SDS011;23314;51.114;6.900;2023-06-26T11:26:42;4.70;;;2.47;;
37451;SDS011;23314;51.114;6.900;2023-06-26T11:29:08;3.53;;;2.38;;
37451;SDS011;23314;51.114;6.900;2023-06-26T11:31:35;4.07;;;2.40;;
37451;SDS011;23314;51.114;6.900;2023-06-26T11:34:03;6.07;;;2.42;;
37451;SDS011;23314;51.114;6.900;2023-06-26T11:36:34;4.53;;;2.05;;
37451;SDS011;23314;51.114;6.900;2023-06-26T11:39:02;5.30;;;2.30;;
37451;SDS011;23314;51.114;6.900;2023-06-26T11:41:31;3.88;;;1.90;;
37451;SDS011;23314;51.114;6.900;2023-06-26T11:44:04;2.72;;;2.00;;
37451;SDS011;23314;51.114;6.900;2023-06-26T11:46:34;2.92;;;1.85;;
37451;SDS011;23314;51.114;6.900;2023-06-26T11:49:00;4.78;;;2.13;;
37451;SDS011;23314;51.114;6.900;2023-06-26T11:51:28;2.83;;;2.00;;
37451;SDS011;23314;51.114;6.900;2023-06-26T11:53:53;4.78;;;2.00;;
37451;SDS011;23314;51.114;6.900;2023-06-26T11:56:19;4.10;;;1.80;;
37451;SDS011;23314;51.114;6.900;2023-06-26T11:59:00;3.25;;;1.77;;
37451;SDS011;23314;51.114;6.900;2023-06-26T12:01:37;4.93;;;1.75;;
37451;SDS011;23314;51.114;6.900;2023-06-26T12:04:05;2.08;;;1.60;;
37451;SDS011;23314;51.114;6.900;2023-06-26T12:06:33;3.60;;;2.38;;
37451;SDS011;23314;51.114;6.900;2023-06-26T12:09:04;4.63;;;1.88;;
37451;SDS011;23314;51.114;6.900;2023-06-26T12:11:30;4.40;;;2.00;;
37451;SDS011;23314;51.114;6.900;2023-06-26T12:13:57;3.55;;;2.17;;
37451;SDS011;23314;51.114;6.900;2023-06-26T12:16:23;3.22;;;1.70;;
37451;SDS011;23314;51.114;6.900;2023-06-26T12:18:48;3.53;;;2.10;;
37451;SDS011;23314;51.114;6.900;2023-06-26T12:23:58;4.07;;;2.03;;
37451;SDS011;23314;51.114;6.900;2023-06-26T12:26:25;6.55;;;2.30;;
37451;SDS011;23314;51.114;6.900;2023-06-26T12:28:51;4.03;;;1.80;;
37451;SDS011;23314;51.114;6.900;2023-06-26T12:31:17;6.80;;;2.45;;
37451;SDS011;23314;51.114;6.900;2023-06-26T12:33:45;3.13;;;2.00;;
37451;SDS011;23314;51.114;6.900;2023-06-26T12:36:11;1.90;;;1.65;;
37451;SDS011;23314;51.114;6.900;2023-06-26T12:38:37;2.53;;;1.58;;
37451;SDS011;23314;51.114;6.900;2023-06-26T12:41:02;2.75;;;1.85;;
37451;SDS011;23314;51.114;6.900;2023-06-26T12:43:27;3.13;;;1.60;;
37451;SDS011;23314;51.114;6.900;2023-06-26T12:45:55;1.63;;;1.45;;
37451;SDS011;23314;51.114;6.900;2023-06-26T12:48:21;3.97;;;1.50;;
37451;SDS011;23314;51.114;6.900;2023-06-26T12:51:07;2.53;;;1.40;;
37451;SDS011;23314;51.114;6.900;2023-06-26T12:53:35;5.47;;;1.70;;
37451;SDS011;23314;51.114;6.900;2023-06-26T12:56:01;4.45;;;1.60;;
37451;SDS011;23314;51.114;6.900;2023-06-26T12:58:26;2.05;;;1.70;;
37451;SDS011;23314;51.114;6.900;2023-06-26T13:00:52;2.35;;;1.63;;
37451;SDS011;23314;51.114;6.900;2023-06-26T13:03:18;4.18;;;1.60;;
37451;SDS011;23314;51.114;6.900;2023-06-26T13:05:45;2.60;;;1.45;;
37451;SDS011;23314;51.114;6.900;2023-06-26T13:08:11;4.72;;;1.50;;
37451;SDS011;23314;51.114;6.900;2023-06-26T13:10:36;1.50;;;1.40;;
37451;SDS011;23314;51.114;6.900;2023-06-26T13:13:02;5.22;;;1.60;;
37451;SDS011;23314;51.114;6.900;2023-06-26T13:15:27;3.28;;;1.10;;
37451;SDS011;23314;51.114;6.900;2023-06-26T13:17:53;3.17;;;1.20;;
37451;SDS011;23314;51.114;6.900;2023-06-26T13:20:18;3.38;;;1.38;;
37451;SDS011;23314;51.114;6.900;2023-06-26T13:22:43;3.42;;;1.63;;
37451;SDS011;23314;51.114;6.900;2023-06-26T13:25:11;1.85;;;1.42;;
37451;SDS011;23314;51.114;6.900;2023-06-26T13:27:36;2.00;;;1.33;;
37451;SDS011;23314;51.114;6.900;2023-06-26T13:30:01;4.38;;;1.70;;
37451;SDS011;23314;51.114;6.900;2023-06-26T13:32:27;5.85;;;1.70;;
37451;SDS011;23314;51.114;6.900;2023-06-26T13:34:52;2.05;;;1.75;;
37451;SDS011;23314;51.114;6.900;2023-06-26T13:37:19;6.95;;;1.52;;
37451;SDS011;23314;51.114;6.900;2023-06-26T13:39:44;3.67;;;1.70;;
37451;SDS011;23314;51.114;6.900;2023-06-26T13:42:15;2.83;;;1.40;;
37451;SDS011;23314;51.114;6.900;2023-06-26T13:44:41;4.55;;;1.63;;
37451;SDS011;23314;51.114;6.900;2023-06-26T13:47:06;5.43;;;1.70;;
37451;SDS011;23314;51.114;6.900;2023-06-26T13:49:32;3.03;;;1.48;;
37451;SDS011;23314;51.114;6.900;2023-06-26T13:51:57;3.72;;;1.58;;
37451;SDS011;23314;51.114;6.900;2023-06-26T13:54:22;3.55;;;1.50;;
37451;SDS011;23314;51.114;6.900;2023-06-26T13:56:48;6.38;;;1.42;;
37451;SDS011;23314;51.114;6.900;2023-06-26T13:59:13;5.00;;;1.70;;
37451;SDS011;23314;51.114;6.900;2023-06-26T14:01:39;2.55;;;1.60;;
37451;SDS011;23314;51.114;6.900;2023-06-26T14:04:07;2.42;;;1.42;;
37451;SDS011;23314;51.114;6.900;2023-06-26T14:06:33;3.33;;;1.38;;
37451;SDS011;23314;51.114;6.900;2023-06-26T14:08:59;2.38;;;1.48;;
37451;SDS011;23314;51.114;6.900;2023-06-26T14:11:24;4.95;;;1.55;;
37451;SDS011;23314;51.114;6.900;2023-06-26T14:13:50;4.43;;;1.35;;
37451;SDS011;23314;51.114;6.900;2023-06-26T14:16:15;2.22;;;1.77;;
37451;SDS011;23314;51.114;6.900;2023-06-26T14:18:43;3.75;;;1.70;;
37451;SDS011;23314;51.114;6.900;2023-06-26T14:21:09;1.98;;;1.85;;
37451;SDS011;23314;51.114;6.900;2023-06-26T14:23:35;3.15;;;1.60;;
37451;SDS011;23314;51.114;6.900;2023-06-26T14:26:00;4.07;;;1.83;;
37451;SDS011;23314;51.114;6.900;2023-06-26T14:28:26;2.83;;;1.45;;
37451;SDS011;23314;51.114;6.900;2023-06-26T14:30:51;3.17;;;1.52;;
37451;SDS011;23314;51.114;6.900;2023-06-26T14:33:16;4.75;;;1.70;;
37451;SDS011;23314;51.114;6.900;2023-06-26T14:35:41;6.85;;;2.10;;
37451;SDS011;23314;51.114;6.900;2023-06-26T14:38:07;7.63;;;1.60;;
37451;SDS011;23314;51.114;6.900;2023-06-26T14:40:32;3.17;;;1.50;;
37451;SDS011;23314;51.114;6.900;2023-06-26T14:42:57;1.40;;;1.30;;
37451;SDS011;23314;51.114;6.900;2023-06-26T14:45:23;3.55;;;1.80;;
37451;SDS011;23314;51.114;6.900;2023-06-26T14:47:48;2.85;;;1.65;;
37451;SDS011;23314;51.114;6.900;2023-06-26T14:50:13;3.28;;;2.00;;
37451;SDS011;23314;51.114;6.900;2023-06-26T14:52:39;5.38;;;1.70;;
37451;SDS011;23314;51.114;6.900;2023-06-26T14:55:04;4.45;;;1.65;;
37451;SDS011;23314;51.114;6.900;2023-06-26T14:57:30;3.55;;;1.40;;
37451;SDS011;23314;51.114;6.900;2023-06-26T14:59:55;2.72;;;1.50;;
37451;SDS011;23314;51.114;6.900;2023-06-26T15:02:21;4.00;;;1.88;;
37451;SDS011;23314;51.114;6.900;2023-06-26T15:04:46;4.03;;;1.70;;
37451;SDS011;23314;51.114;6.900;2023-06-26T15:07:11;7.32;;;1.90;;
37451;SDS011;23314;51.114;6.900;2023-06-26T15:09:37;3.13;;;1.90;;
37451;SDS011;23314;51.114;6.900;2023-06-26T15:12:02;4.55;;;1.65;;
37451;SDS011;23314;51.114;6.900;2023-06-26T15:14:28;2.53;;;1.92;;
37451;SDS011;23314;51.114;6.900;2023-06-26T15:16:53;2.15;;;1.63;;
37451;SDS011;23314;51.114;6.900;2023-06-26T15:19:19;5.63;;;1.70;;
37451;SDS011;23314;51.114;6.900;2023-06-26T15:21:44;6.00;;;1.50;;
37451;SDS011;23314;51.114;6.900;2023-06-26T15:24:10;7.22;;;1.80;;
37451;SDS011;23314;51.114;6.900;2023-06-26T15:26:35;1.98;;;1.70;;
37451;SDS011;23314;51.114;6.900;2023-06-26T15:29:01;2.88;;;1.50;;
37451;SDS011;23314;51.114;6.900;2023-06-26T15:31:30;5.85;;;1.35;;
37451;SDS011;23314;51.114;6.900;2023-06-26T15:33:59;2.10;;;1.65;;
37451;SDS011;23314;51.114;6.900;2023-06-26T15:36:24;3.95;;;1.52;;
37451;SDS011;23314;51.114;6.900;2023-06-26T15:38:50;4.18;;;1.65;;
37451;SDS011;23314;51.114;6.900;2023-06-26T15:41:15;4.65;;;1.80;;
37451;SDS011;23314;51.114;6.900;2023-06-26T15:43:41;1.92;;;1.50;;
37451;SDS011;23314;51.114;6.900;2023-06-26T15:46:08;2.83;;;1.35;;
37451;SDS011;23314;51.114;6.900;2023-06-26T15:48:33;4.93;;;1.52;;
37451;SDS011;23314;51.114;6.900;2023-06-26T15:50:59;2.17;;;1.40;;
37451;SDS011;23314;51.114;6.900;2023-06-26T15:53:34;4.78;;;1.45;;
37451;SDS011;23314;51.114;6.900;2023-06-26T15:56:03;3.20;;;1.70;;
37451;SDS011;23314;51.114;6.900;2023-06-26T15:58:31;1.70;;;1.60;;
37451;SDS011;23314;51.114;6.900;2023-06-26T16:00:57;2.22;;;1.67;;
37451;SDS011;23314;51.114;6.900;2023-06-26T16:03:22;2.75;;;1.60;;
37451;SDS011;23314;51.114;6.900;2023-06-26T16:05:48;3.85;;;1.90;;
37451;SDS011;23314;51.114;6.900;2023-06-26T16:08:13;2.78;;;1.73;;
37451;SDS011;23314;51.114;6.900;2023-06-26T16:10:38;2.20;;;1.60;;
37451;SDS011;23314;51.114;6.900;2023-06-26T16:13:04;2.53;;;1.58;;
37451;SDS011;23314;51.114;6.900;2023-06-26T16:15:29;3.78;;;1.48;;
37451;SDS011;23314;51.114;6.900;2023-06-26T16:17:54;3.33;;;1.40;;
37451;SDS011;23314;51.114;6.900;2023-06-26T16:20:20;4.43;;;1.77;;
37451;SDS011;23314;51.114;6.900;2023-06-26T16:22:45;2.75;;;1.80;;
37451;SDS011;23314;51.114;6.900;2023-06-26T16:25:11;2.70;;;1.38;;
37451;SDS011;23314;51.114;6.900;2023-06-26T16:27:40;4.45;;;1.50;;
37451;SDS011;23314;51.114;6.900;2023-06-26T16:30:07;2.15;;;2.00;;
37451;SDS011;23314;51.114;6.900;2023-06-26T16:32:33;2.63;;;1.67;;
37451;SDS011;23314;51.114;6.900;2023-06-26T16:34:59;2.78;;;1.45;;
37451;SDS011;23314;51.114;6.900;2023-06-26T16:37:24;5.93;;;1.52;;
37451;SDS011;23314;51.114;6.900;2023-06-26T16:39:50;2.22;;;1.52;;
37451;SDS011;23314;51.114;6.900;2023-06-26T16:42:15;6.30;;;1.73;;
37451;SDS011;23314;51.114;6.900;2023-06-26T16:44:43;3.20;;;1.67;;
37451;SDS011;23314;51.114;6.900;2023-06-26T16:47:09;4.97;;;1.48;;
37451;SDS011;23314;51.114;6.900;2023-06-26T16:49:34;4.75;;;1.52;;
37451;SDS011;23314;51.114;6.900;2023-06-26T16:52:00;6.47;;;1.73;;
37451;SDS011;23314;51.114;6.900;2023-06-26T16:54:27;2.50;;;1.75;;
37451;SDS011;23314;51.114;6.900;2023-06-26T16:56:52;3.78;;;1.70;;
37451;SDS011;23314;51.114;6.900;2023-06-26T16:59:18;2.42;;;1.40;;
37451;SDS011;23314;51.114;6.900;2023-06-26T17:01:44;9.32;;;1.70;;
37451;SDS011;23314;51.114;6.900;2023-06-26T17:04:10;3.95;;;1.52;;
37451;SDS011;23314;51.114;6.900;2023-06-26T17:06:36;4.15;;;1.50;;
37451;SDS011;23314;51.114;6.900;2023-06-26T17:09:02;3.53;;;1.50;;
37451;SDS011;23314;51.114;6.900;2023-06-26T17:11:28;6.60;;;1.50;;
37451;SDS011;23314;51.114;6.900;2023-06-26T17:13:53;1.73;;;1.30;;
37451;SDS011;23314;51.114;6.900;2023-06-26T17:16:18;2.42;;;1.33;;
37451;SDS011;23314;51.114;6.900;2023-06-26T17:18:44;2.40;;;1.40;;
37451;SDS011;23314;51.114;6.900;2023-06-26T17:21:09;2.08;;;1.55;;
37451;SDS011;23314;51.114;6.900;2023-06-26T17:23:37;3.63;;;1.60;;
37451;SDS011;23314;51.114;6.900;2023-06-26T17:26:03;2.67;;;1.40;;
37451;SDS011;23314;51.114;6.900;2023-06-26T17:28:30;2.28;;;1.30;;
37451;SDS011;23314;51.114;6.900;2023-06-26T17:30:56;2.95;;;1.48;;
37451;SDS011;23314;51.114;6.900;2023-06-26T17:33:21;3.83;;;1.42;;
37451;SDS011;23314;51.114;6.900;2023-06-26T17:35:47;1.70;;;1.55;;
37451;SDS011;23314;51.114;6.900;2023-06-26T17:38:12;1.88;;;1.20;;
37451;SDS011;23314;51.114;6.900;2023-06-26T17:40:37;3.90;;;1.58;;
37451;SDS011;23314;51.114;6.900;2023-06-26T17:43:03;1.65;;;1.45;;
37451;SDS011;23314;51.114;6.900;2023-06-26T17:45:28;1.75;;;1.30;;
37451;SDS011;23314;51.114;6.900;2023-06-26T17:47:54;2.35;;;1.40;;
37451;SDS011;23314;51.114;6.900;2023-06-26T17:50:20;1.83;;;1.52;;
37451;SDS011;23314;51.114;6.900;2023-06-26T17:52:45;2.95;;;1.30;;
37451;SDS011;23314;51.114;6.900;2023-06-26T17:55:11;1.88;;;1.33;;
37451;SDS011;23314;51.114;6.900;2023-06-26T17:57:37;3.35;;;1.50;;
37451;SDS011;23314;51.114;6.900;2023-06-26T18:00:04;1.83;;;1.25;;
37451;SDS011;23314;51.114;6.900;2023-06-26T18:02:31;2.33;;;1.20;;
37451;SDS011;23314;51.114;6.900;2023-06-26T18:04:57;1.88;;;1.40;;
37451;SDS011;23314;51.114;6.900;2023-06-26T18:07:22;5.80;;;1.73;;
37451;SDS011;23314;51.114;6.900;2023-06-26T18:09:47;2.92;;;1.45;;
37451;SDS011;23314;51.114;6.900;2023-06-26T18:12:13;1.88;;;1.55;;
37451;SDS011;23314;51.114;6.900;2023-06-26T18:14:38;1.30;;;1.20;;
37451;SDS011;23314;51.114;6.900;2023-06-26T18:17:04;3.40;;;1.65;;
37451;SDS011;23314;51.114;6.900;2023-06-26T18:19:30;9.38;;;1.73;;
37451;SDS011;23314;51.114;6.900;2023-06-26T18:21:56;2.17;;;1.80;;
37451;SDS011;23314;51.114;6.900;2023-06-26T18:24:21;4.88;;;1.80;;
37451;SDS011;23314;51.114;6.900;2023-06-26T18:26:47;2.78;;;1.60;;
37451;SDS011;23314;51.114;6.900;2023-06-26T18:29:13;1.48;;;1.38;;
37451;SDS011;23314;51.114;6.900;2023-06-26T18:31:38;3.65;;;1.55;;
37451;SDS011;23314;51.114;6.900;2023-06-26T18:34:04;2.33;;;1.40;;
37451;SDS011;23314;51.114;6.900;2023-06-26T18:36:29;2.85;;;1.60;;
37451;SDS011;23314;51.114;6.900;2023-06-26T18:38:56;1.85;;;1.27;;
37451;SDS011;23314;51.114;6.900;2023-06-26T18:41:21;4.25;;;1.67;;
37451;SDS011;23314;51.114;6.900;2023-06-26T18:43:46;2.70;;;1.35;;
37451;SDS011;23314;51.114;6.900;2023-06-26T18:46:15;2.67;;;1.38;;
37451;SDS011;23314;51.114;6.900;2023-06-26T18:48:41;2.25;;;1.30;;
37451;SDS011;23314;51.114;6.900;2023-06-26T18:51:07;1.90;;;1.50;;
37451;SDS011;23314;51.114;6.900;2023-06-26T18:53:33;1.40;;;1.30;;